CYDP/YDP METAR and TAF weather

Enter ICAO airport designator
Station Type Date Time Source
CYDP METAR 2020/11/27 00:00 UTC NOAA

CYDP 270000Z VRB02KT 15SM OVC230 M10/M14 A3003 RMK CS8 HALO LAST STFD OBS/NXT 270900Z SLP171


Station Type Date Time Source
CYDP Decoded METAR 2020/11/27 00:00 UTC NOAA

Nain, Nfld, Canada (CYDP) 56-33N 061-41W 7M
Nov 26, 2020 - 07:00 PM EST / 2020.11.27 0000 UTC
Wind: Variable at 2 MPH (2 KT):0
Visibility: 15 mile(s):0
Sky conditions: overcast
Temperature: 14 F (-10 C)
Dew Point: 6 F (-14 C)
Relative Humidity: 72%
Pressure (altimeter): 30.03 in. Hg (1016 hPa)
ob: CYDP 270000Z VRB02KT 15SM OVC230 M10/M14 A3003 RMK CS8 HALO LAST STFD OBS/NXT 270900Z SLP171
cycle: 0

Station Type Date Time Source
CYDP TAF 2020/11/26 20:00 UTC NOAA

TAF CYDP 261941Z 2620/2624 24010G20KT P6SM FEW025 SCT200
RMK NXT FCST WILL BE ISSUED AT 271045Z

Example: see airport list